Time;durP1;ratioP1;P1;durP2;ratioP2;P2;SDS_P1;SDS_P2;PMS_P1;PMS_P2;Temp;Humidity;BMP_temperature;BMP_pressure;BME280_temperature;BME280_humidity;BME280_pressure;Samples;Min_cycle;Max_cycle;Signal;HPM_P1;HPM_P2
2023/08/21 00:00:24;;;;;;;15.47;3.33;;;;;;;24.91;76.84;100333.22;5005937;28;20072;-56
2023/08/21 00:02:56;;;;;;;10.87;3.80;;;;;;;25.04;75.79;100326.97;5002350;28;20551;-56
2023/08/21 00:05:27;;;;;;;15.83;3.70;;;;;;;25.13;76.51;100331.59;5005761;28;20107;-56
2023/08/21 00:07:57;;;;;;;10.43;3.77;;;;;;;25.21;75.69;100334.59;4995420;28;20123;-57
2023/08/21 00:10:28;;;;;;;17.47;3.87;;;;;;;25.39;76.01;100326.97;5005309;28;20124;-58
2023/08/21 00:12:58;;;;;;;14.10;3.97;;;;;;;25.52;75.12;100325.03;4995475;28;20520;-56
2023/08/21 00:15:29;;;;;;;14.20;3.70;;;;;;;25.63;74.93;100324.19;5018865;28;20098;-56
2023/08/21 00:18:01;;;;;;;18.93;4.43;;;;;;;25.52;75.34;100298.28;5015476;28;20053;-57
2023/08/21 00:20:32;;;;;;;16.97;4.13;;;;;;;25.80;73.91;100321.03;5025417;28;20067;-56
2023/08/21 00:23:03;;;;;;;14.23;3.87;;;;;;;25.90;73.75;100323.00;5014849;28;20527;-56
2023/08/21 00:25:35;;;;;;;21.50;3.97;;;;;;;26.00;72.92;100321.28;5017247;28;20473;-56
2023/08/21 00:28:06;;;;;;;17.30;4.23;;;;;;;26.16;73.29;100311.06;4995278;28;20085;-56
2023/08/21 00:30:36;;;;;;;16.40;3.90;;;;;;;26.24;74.28;100319.31;5005560;28;20516;-56
2023/08/21 00:33:10;;;;;;;17.77;3.63;;;;;;;26.45;74.21;100313.19;4995657;28;20065;-55
2023/08/21 00:35:40;;;;;;;15.93;4.60;;;;;;;26.59;72.25;100318.28;5005447;28;20037;-56
2023/08/21 00:38:11;;;;;;;24.87;4.40;;;;;;;26.72;70.85;100328.84;5002210;28;20124;-57
2023/08/21 00:40:42;;;;;;;23.43;4.73;;;;;;;26.68;70.05;100330.06;5025798;28;20071;-56
2023/08/21 00:43:12;;;;;;;13.07;4.33;;;;;;;26.79;70.15;100329.19;5015202;28;20088;-56
2023/08/21 00:45:44;;;;;;;18.73;4.13;;;;;;;26.97;69.46;100316.91;5024743;28;20063;-56
2023/08/21 00:48:17;;;;;;;17.70;4.17;;;;;;;27.04;68.93;100302.00;5014713;28;20064;-56
2023/08/21 00:50:48;;;;;;;18.50;4.43;;;;;;;27.14;69.45;100309.28;5024575;28;20059;-56
2023/08/21 00:53:18;;;;;;;22.83;4.23;;;;;;;27.23;69.05;100308.50;5014719;28;20057;-56
2023/08/21 00:55:49;;;;;;;23.27;3.87;;;;;;;27.26;68.65;100316.31;5024244;28;20049;-56
2023/08/21 00:58:20;;;;;;;17.07;3.90;;;;;;;27.42;69.45;100311.31;4979511;28;20132;-56
2023/08/21 01:00:53;;;;;;;11.30;3.23;;;;;;;27.60;68.06;100310.72;5004950;28;20114;-57
2023/08/21 01:03:25;;;;;;;14.40;3.67;;;;;;;27.66;66.41;100312.88;4975308;28;20081;-57
2023/08/21 01:05:57;;;;;;;15.50;3.47;;;;;;;27.50;65.41;100281.13;4992875;28;20357;-57
2023/08/21 01:08:33;;;;;;;16.33;3.87;;;;;;;27.72;66.55;100305.09;5014873;28;20069;-56
2023/08/21 01:11:13;;;;;;;12.23;4.20;;;;;;;27.73;66.36;100298.78;5003431;28;20077;-56
2023/08/21 01:13:56;;;;;;;19.77;4.20;;;;;;;27.80;65.42;100292.84;5025633;28;20057;-57
2023/08/21 01:16:27;;;;;;;17.30;4.20;;;;;;;27.90;65.00;100283.88;4999750;28;20089;-55
2023/08/21 01:19:02;;;;;;;26.67;4.20;;;;;;;28.02;65.12;100286.47;5015407;28;20140;-57
2023/08/21 01:21:33;;;;;;;18.50;4.07;;;;;;;28.04;64.21;100287.19;5024708;28;20118;-56
2023/08/21 01:24:06;;;;;;;15.70;4.17;;;;;;;28.06;63.15;100277.16;5018681;28;20064;-56
2023/08/21 01:26:36;;;;;;;15.90;3.53;;;;;;;28.08;61.56;100285.91;5011202;28;20080;-56
2023/08/21 01:29:07;;;;;;;20.90;4.40;;;;;;;28.10;61.52;100294.69;4999083;28;20073;-57
2023/08/21 01:31:42;;;;;;;13.10;3.80;;;;;;;28.14;60.99;100290.75;5008843;28;20137;-56
2023/08/21 01:34:16;;;;;;;11.93;3.20;;;;;;;28.23;60.48;100284.53;5003542;28;22201;-56
2023/08/21 01:36:47;;;;;;;10.97;3.30;;;;;;;28.31;59.98;100287.38;5028370;28;20186;-57
2023/08/21 01:39:20;;;;;;;11.97;3.53;;;;;;;28.37;59.92;100284.13;5018310;28;20056;-57
2023/08/21 01:41:51;;;;;;;6.83;2.87;;;;;;;28.48;59.94;100282.31;5028293;28;20136;-56
2023/08/21 01:44:21;;;;;;;10.23;3.13;;;;;;;28.52;59.91;100289.97;5018325;28;20531;-57
2023/08/21 01:46:52;;;;;;;12.90;3.00;;;;;;;28.65;60.86;100278.94;5028516;28;20076;-56
2023/08/21 01:49:23;;;;;;;12.57;3.07;;;;;;;28.75;59.66;100274.41;5001448;28;20128;-56
2023/08/21 01:51:53;;;;;;;14.53;2.67;;;;;;;28.72;59.46;100266.63;5027752;28;20076;-56
2023/08/21 01:54:26;;;;;;;12.87;3.40;;;;;;;28.78;59.52;100266.06;5028408;28;20041;-56
2023/08/21 01:56:56;;;;;;;7.33;3.03;;;;;;;28.80;58.58;100258.69;5008243;28;20148;-55
2023/08/21 01:59:27;;;;;;;11.27;3.10;;;;;;;28.72;57.47;100252.34;5012832;28;20060;-56
2023/08/21 02:01:58;;;;;;;6.50;2.70;;;;;;;28.82;57.58;100259.41;5005553;28;20127;-56
2023/08/21 02:04:28;;;;;;;5.70;2.80;;;;;;;28.95;59.30;100264.47;5019063;28;20088;-56
2023/08/21 02:06:59;;;;;;;6.07;3.00;;;;;;;29.05;59.65;100259.09;5007729;28;20136;-56
2023/08/21 02:09:31;;;;;;;8.73;2.90;;;;;;;29.13;58.93;100267.34;5018392;28;20059;-56
2023/08/21 02:12:01;;;;;;;13.43;3.13;;;;;;;29.19;57.83;100266.75;5005660;28;20048;-56
2023/08/21 02:14:32;;;;;;;13.10;3.30;;;;;;;29.23;58.31;100262.78;5011132;28;20459;-56
2023/08/21 02:17:03;;;;;;;7.33;2.63;;;;;;;29.29;56.79;100271.25;4998862;28;20053;-56
2023/08/21 02:19:33;;;;;;;4.43;2.43;;;;;;;29.28;57.22;100274.91;5007914;28;20045;-56
2023/08/21 02:22:04;;;;;;;12.37;2.73;;;;;;;29.26;56.57;100271.56;5001506;28;20049;-57
2023/08/21 02:24:36;;;;;;;8.70;2.83;;;;;;;29.40;56.92;100268.38;5013483;28;20474;-55
2023/08/21 02:27:07;;;;;;;12.97;3.07;;;;;;;29.38;55.88;100264.97;4999378;28;20474;-57
2023/08/21 02:29:37;;;;;;;8.63;2.70;;;;;;;29.41;56.87;100273.63;5006845;28;20127;-57
2023/08/21 02:32:08;;;;;;;8.47;2.70;;;;;;;29.48;57.49;100276.59;5010194;28;20128;-56
2023/08/21 02:34:39;;;;;;;15.87;3.17;;;;;;;29.60;57.55;100270.00;5026658;28;20053;-56
2023/08/21 02:37:09;;;;;;;6.23;3.03;;;;;;;29.76;57.35;100282.03;5016795;28;20150;-56
2023/08/21 02:39:42;;;;;;;14.33;3.07;;;;;;;29.78;56.46;100269.25;5026696;28;20135;-56
2023/08/21 02:42:12;;;;;;;5.27;3.10;;;;;;;29.78;56.15;100277.31;5016712;28;20049;-57
2023/08/21 02:44:43;;;;;;;7.90;3.13;;;;;;;29.79;56.88;100274.50;5026555;28;20123;-56
2023/08/21 02:47:13;;;;;;;7.40;2.67;;;;;;;29.80;57.22;100280.72;5016779;28;20054;-56
2023/08/21 02:49:44;;;;;;;10.37;3.00;;;;;;;29.78;57.55;100271.94;5023355;28;20527;-56
2023/08/21 02:52:15;;;;;;;6.90;2.70;;;;;;;29.83;57.30;100269.63;5005420;28;20065;-57
2023/08/21 02:54:47;;;;;;;8.00;2.70;;;;;;;29.88;56.54;100283.53;4995067;28;20144;-57
2023/08/21 02:57:17;;;;;;;10.57;2.87;;;;;;;29.92;57.30;100279.53;4979230;28;20050;-56
2023/08/21 02:59:48;;;;;;;7.40;2.97;;;;;;;29.94;57.11;100272.16;4987093;28;20078;-56
2023/08/21 03:02:19;;;;;;;4.40;2.70;;;;;;;29.81;57.14;100239.34;4999198;28;20061;-56
2023/08/21 03:05:05;;;;;;;6.53;2.80;;;;;;;29.99;57.08;100259.06;5014275;28;20052;-58
2023/08/21 03:07:45;;;;;;;4.70;3.00;;;;;;;29.98;56.46;100265.47;5015272;28;20199;-58
2023/08/21 03:10:23;;;;;;;5.20;2.97;;;;;;;29.98;57.13;100262.78;5011030;28;20057;-59
2023/08/21 03:12:59;;;;;;;4.37;3.00;;;;;;;30.06;55.97;100259.31;5012436;28;20131;-58
2023/08/21 03:15:38;;;;;;;4.87;2.63;;;;;;;30.12;55.33;100249.78;5022534;28;20057;-58
2023/08/21 03:18:22;;;;;;;8.50;3.20;;;;;;;30.09;55.66;100259.84;5011633;28;20064;-58
2023/08/21 03:21:00;;;;;;;8.10;2.77;;;;;;;30.17;56.71;100263.66;5012712;28;20037;-58
2023/08/21 03:23:31;;;;;;;5.87;2.70;;;;;;;30.21;56.64;100262.34;5021507;28;20053;-58
2023/08/21 03:26:03;;;;;;;5.37;3.17;;;;;;;30.20;55.27;100261.47;5012294;28;20148;-58
2023/08/21 03:28:34;;;;;;;4.67;3.00;;;;;;;30.19;56.43;100267.03;5022606;28;20148;-58
2023/08/21 03:31:04;;;;;;;4.30;2.67;;;;;;;30.26;56.38;100260.09;5011608;28;20135;-58
2023/08/21 03:33:35;;;;;;;14.13;3.30;;;;;;;30.28;56.59;100252.69;5021440;28;20052;-59
2023/08/21 03:36:06;;;;;;;6.23;2.77;;;;;;;30.35;55.82;100252.91;5011692;28;20268;-57
2023/08/21 03:38:36;;;;;;;5.60;2.60;;;;;;;30.35;56.40;100253.75;5022644;28;20059;-58
2023/08/21 03:41:09;;;;;;;12.00;2.93;;;;;;;30.30;55.70;100251.53;5012347;28;20053;-59
2023/08/21 03:43:39;;;;;;;6.00;2.97;;;;;;;30.35;56.51;100248.34;5022588;28;20387;-58
2023/08/21 03:46:10;;;;;;;6.47;2.50;;;;;;;30.38;54.92;100248.06;5011810;28;20410;-59
2023/08/21 03:48:40;;;;;;;8.67;2.73;;;;;;;30.44;56.11;100247.44;5021162;28;20041;-58
2023/08/21 03:51:11;;;;;;;9.30;2.63;;;;;;;30.50;56.76;100244.16;5012014;28;20129;-58
2023/08/21 03:53:42;;;;;;;8.27;2.97;;;;;;;30.58;55.83;100242.50;5022111;28;20859;-58
2023/08/21 03:56:14;;;;;;;6.30;3.03;;;;;;;30.62;56.20;100241.19;5012286;28;20550;-59
2023/08/21 03:58:44;;;;;;;6.83;2.90;;;;;;;30.62;56.04;100238.50;5022434;28;20045;-58
2023/08/21 04:01:15;;;;;;;7.27;2.83;;;;;;;30.61;55.32;100234.13;5011271;28;20477;-58
2023/08/21 04:03:46;;;;;;;9.07;3.00;;;;;;;30.62;55.57;100238.50;5021840;28;20095;-59
2023/08/21 04:06:17;;;;;;;7.37;3.00;;;;;;;30.62;56.18;100233.13;4992547;28;20462;-58
2023/08/21 04:08:48;;;;;;;5.90;2.80;;;;;;;30.58;55.18;100227.19;5001769;28;20531;-59
2023/08/21 04:11:20;;;;;;;7.27;2.83;;;;;;;30.57;53.77;100233.56;4991421;28;20564;-58
2023/08/21 04:13:50;;;;;;;3.80;2.30;;;;;;;30.58;54.56;100231.72;5002685;28;20072;-60
2023/08/21 04:16:21;;;;;;;5.40;2.77;;;;;;;30.57;55.87;100221.94;4991577;28;20375;-59
2023/08/21 04:18:52;;;;;;;4.70;3.30;;;;;;;30.58;54.39;100224.50;5017620;28;20036;-58
2023/08/21 04:21:24;;;;;;;9.53;2.87;;;;;;;30.64;56.02;100220.31;4991718;28;20239;-58
2023/08/21 04:23:56;;;;;;;5.00;2.57;;;;;;;30.60;55.98;100224.31;5002962;28;20375;-58
2023/08/21 04:26:29;;;;;;;12.83;3.17;;;;;;;30.63;56.88;100218.59;5021319;28;20037;-59
2023/08/21 04:29:00;;;;;;;7.53;3.57;;;;;;;30.68;57.43;100217.16;5011595;28;20396;-57
2023/08/21 04:31:31;;;;;;;9.17;3.47;;;;;;;30.72;57.36;100223.06;5021340;28;20060;-58
2023/08/21 04:34:05;;;;;;;21.03;3.53;;;;;;;30.75;56.82;100228.16;5011289;28;20052;-58
2023/08/21 04:36:36;;;;;;;11.67;3.20;;;;;;;30.72;56.67;100217.69;5021561;28;20142;-59
2023/08/21 04:39:08;;;;;;;8.40;3.30;;;;;;;30.66;55.93;100218.31;5010780;28;20041;-59
2023/08/21 04:41:46;;;;;;;12.20;3.20;;;;;;;30.44;56.38;100182.75;5021270;28;20098;-59
2023/08/21 04:44:18;;;;;;;6.40;3.00;;;;;;;30.65;57.26;100222.00;5010493;28;20230;-59
2023/08/21 04:46:52;;;;;;;7.10;3.23;;;;;;;30.64;57.24;100221.16;5021449;28;20115;-59
2023/08/21 04:49:23;;;;;;;3.77;2.60;;;;;;;30.66;57.36;100218.31;4990474;28;20396;-59
2023/08/21 04:51:54;;;;;;;11.77;3.30;;;;;;;30.62;56.06;100219.63;4997611;28;20554;-59
2023/08/21 04:54:27;;;;;;;6.70;2.77;;;;;;;30.64;56.31;100209.53;5001057;28;20057;-58
2023/08/21 04:57:00;;;;;;;5.60;3.00;;;;;;;30.69;56.02;100212.59;4992059;28;20168;-59
2023/08/21 04:59:31;;;;;;;6.37;2.93;;;;;;;30.61;55.56;100215.25;5010057;28;20419;-59
2023/08/21 05:02:05;;;;;;;5.73;3.03;;;;;;;30.53;54.86;100200.69;5014706;28;20045;-59
2023/08/21 05:04:38;;;;;;;9.37;3.10;;;;;;;30.47;56.45;100204.00;5025012;28;20110;-58
2023/08/21 05:07:09;;;;;;;5.87;3.17;;;;;;;30.58;57.39;100204.75;5014340;28;20084;-59
2023/08/21 05:09:41;;;;;;;6.63;2.70;;;;;;;30.65;58.20;100205.81;5025595;28;20168;-58
2023/08/21 05:12:14;;;;;;;5.97;2.83;;;;;;;30.64;57.15;100201.44;5014038;28;20691;-58
2023/08/21 05:14:45;;;;;;;8.00;2.83;;;;;;;30.63;56.57;100200.59;5024051;28;20081;-59
2023/08/21 05:17:17;;;;;;;5.80;2.53;;;;;;;30.57;56.36;100192.28;5014505;28;20051;-58
2023/08/21 05:19:48;;;;;;;6.53;2.80;;;;;;;30.57;56.17;100189.59;5024423;28;20110;-59
2023/08/21 05:22:19;;;;;;;7.70;3.27;;;;;;;30.51;56.78;100189.22;4994941;28;21131;-58
2023/08/21 05:24:50;;;;;;;8.77;3.10;;;;;;;30.49;57.17;100191.22;5020374;28;20376;-58
2023/08/21 05:27:23;;;;;;;7.03;2.97;;;;;;;30.41;57.11;100179.53;5014209;28;20048;-57
2023/08/21 05:29:54;;;;;;;10.53;2.90;;;;;;;30.37;57.94;100192.44;5021547;28;20056;-58
2023/08/21 05:32:26;;;;;;;8.67;2.73;;;;;;;30.15;56.81;100147.06;5025100;28;20086;-59
2023/08/21 05:34:57;;;;;;;8.07;2.83;;;;;;;30.33;57.62;100180.31;5014909;28;20095;-57
2023/08/21 05:37:29;;;;;;;8.40;3.53;;;;;;;30.43;58.80;100181.06;5024479;28;20052;-58
2023/08/21 05:40:00;;;;;;;9.50;3.23;;;;;;;30.44;57.89;100188.13;5015197;28;20071;-58
2023/08/21 05:42:33;;;;;;;10.43;2.87;;;;;;;30.30;56.82;100188.69;5024673;28;20107;-58
2023/08/21 05:45:05;;;;;;;9.80;3.10;;;;;;;30.26;57.52;100179.22;5014610;28;20047;-57
2023/08/21 05:47:38;;;;;;;14.80;3.00;;;;;;;30.21;57.29;100178.81;5024094;28;20040;-58
2023/08/21 05:50:09;;;;;;;20.50;3.20;;;;;;;30.19;56.67;100176.25;5013557;28;20068;-58
2023/08/21 05:52:40;;;;;;;8.10;2.90;;;;;;;30.13;56.98;100184.09;5024669;28;20064;-57
2023/08/21 05:55:12;;;;;;;8.77;2.83;;;;;;;30.04;56.40;100178.63;5014259;28;20543;-58
2023/08/21 05:57:45;;;;;;;21.53;3.03;;;;;;;29.99;57.46;100177.41;5029136;28;20041;-59
2023/08/21 06:00:16;;;;;;;5.37;2.90;;;;;;;29.94;57.38;100168.94;5020398;28;20540;-58
2023/08/21 06:02:47;;;;;;;11.60;3.23;;;;;;;30.06;57.97;100168.56;5023783;28;20125;-58
2023/08/21 06:05:18;;;;;;;10.30;2.67;;;;;;;30.02;57.03;100177.94;5013776;28;20100;-58
2023/08/21 06:07:49;;;;;;;10.70;3.10;;;;;;;29.96;56.61;100183.94;5023211;28;20076;-57
2023/08/21 06:10:19;;;;;;;8.90;2.93;;;;;;;29.90;55.67;100189.94;5013129;28;20048;-58
2023/08/21 06:12:52;;;;;;;6.67;2.70;;;;;;;29.79;55.55;100192.84;5023153;28;20064;-58
2023/08/21 06:15:22;;;;;;;10.53;3.07;;;;;;;29.76;55.73;100199.38;4994615;28;20184;-59
2023/08/21 06:17:53;;;;;;;8.83;2.50;;;;;;;29.74;56.98;100203.22;5003970;28;20085;-58
2023/08/21 06:20:23;;;;;;;6.17;2.73;;;;;;;29.70;58.14;100188.38;5010455;28;20049;-58
2023/08/21 06:22:54;;;;;;;9.93;2.90;;;;;;;29.67;58.73;100168.81;5000711;28;20146;-58
2023/08/21 06:25:25;;;;;;;9.13;2.67;;;;;;;29.58;57.64;100168.84;5023725;28;20041;-58
2023/08/21 06:27:57;;;;;;;6.70;2.67;;;;;;;29.63;58.16;100180.88;5013676;28;20041;-57
2023/08/21 06:30:29;;;;;;;7.10;2.70;;;;;;;29.59;58.30;100192.94;5022450;28;20084;-57
2023/08/21 06:33:00;;;;;;;9.33;2.50;;;;;;;29.51;58.60;100184.75;5013353;28;20194;-59
2023/08/21 06:35:30;;;;;;;7.00;3.10;;;;;;;29.54;59.23;100189.00;5022753;28;20107;-59
2023/08/21 06:38:01;;;;;;;10.33;2.93;;;;;;;29.53;58.29;100190.84;4996229;28;20165;-59
2023/08/21 06:40:31;;;;;;;11.33;2.97;;;;;;;29.46;58.28;100190.59;5003870;28;20128;-59
2023/08/21 06:43:05;;;;;;;14.77;3.27;;;;;;;29.45;59.25;100190.72;4993153;28;20053;-58
2023/08/21 06:45:36;;;;;;;13.60;2.83;;;;;;;29.40;58.95;100190.31;5002979;28;20441;-59
2023/08/21 06:48:09;;;;;;;22.47;3.43;;;;;;;29.34;59.12;100193.63;4993063;28;20380;-59
2023/08/21 06:50:41;;;;;;;5.93;2.90;;;;;;;29.23;59.00;100182.06;5003455;28;20057;-59
2023/08/21 06:53:11;;;;;;;11.17;2.70;;;;;;;29.22;60.05;100184.88;4992954;28;20153;-58
2023/08/21 06:55:42;;;;;;;8.53;2.77;;;;;;;29.07;60.23;100165.66;5003405;28;20460;-59
2023/08/21 06:58:14;;;;;;;7.10;2.57;;;;;;;29.14;60.76;100182.09;4993085;28;20052;-59
2023/08/21 07:00:45;;;;;;;10.63;3.07;;;;;;;29.14;59.82;100182.09;5017702;28;20080;-59
2023/08/21 07:03:15;;;;;;;14.67;2.80;;;;;;;28.88;59.97;100154.94;4993911;28;20397;-57
2023/08/21 07:05:54;;;;;;;8.23;2.80;;;;;;;28.96;59.64;100179.28;5002376;28;20574;-58
2023/08/21 07:08:25;;;;;;;11.30;3.20;;;;;;;28.64;59.88;100153.59;5012509;28;20041;-58
2023/08/21 07:10:56;;;;;;;11.57;3.33;;;;;;;28.70;60.29;100182.56;5019859;28;20558;-57
2023/08/21 07:13:29;;;;;;;9.27;2.87;;;;;;;28.69;61.41;100188.09;5009145;28;20152;-58
2023/08/21 07:16:02;;;;;;;8.57;3.03;;;;;;;28.61;60.38;100180.75;4991968;28;20141;-58
2023/08/21 07:18:35;;;;;;;5.47;2.63;;;;;;;28.36;61.44;100150.75;5016128;28;20110;-58
2023/08/21 07:21:05;;;;;;;9.10;3.17;;;;;;;28.60;62.40;100179.03;5012295;28;20181;-58
2023/08/21 07:23:51;;;;;;;5.47;2.60;;;;;;;28.62;62.43;100171.69;5022213;28;20499;-58
2023/08/21 07:26:21;;;;;;;6.47;2.77;;;;;;;28.65;62.56;100176.78;5011785;28;20527;-58
2023/08/21 07:28:54;;;;;;;10.20;3.07;;;;;;;28.59;63.15;100163.94;5014845;28;20465;-57
2023/08/21 07:31:25;;;;;;;11.10;3.20;;;;;;;28.58;63.41;100154.16;4992393;28;20422;-58
2023/08/21 07:33:57;;;;;;;12.20;3.73;;;;;;;28.52;63.79;100152.88;4992905;28;20103;-58
2023/08/21 07:36:27;;;;;;;5.93;2.83;;;;;;;28.47;64.20;100147.09;5001315;28;20148;-58
2023/08/21 07:38:59;;;;;;;10.03;2.93;;;;;;;28.47;64.72;100136.34;4991677;28;20440;-58
2023/08/21 07:41:31;;;;;;;9.97;3.13;;;;;;;28.24;65.51;100108.91;5002048;28;20052;-58
2023/08/21 07:44:03;;;;;;;13.20;2.83;;;;;;;28.38;65.84;100146.09;5000635;28;20426;-58
2023/08/21 07:46:34;;;;;;;11.97;3.03;;;;;;;28.33;65.03;100151.06;5021949;28;20483;-59
2023/08/21 07:49:04;;;;;;;9.43;2.63;;;;;;;28.22;64.68;100148.50;5011976;28;20414;-58
2023/08/21 07:51:35;;;;;;;6.63;3.47;;;;;;;28.16;64.80;100154.44;5021607;28;20076;-58
2023/08/21 07:54:06;;;;;;;9.57;2.40;;;;;;;28.11;65.17;100148.66;5011423;28;20052;-58
2023/08/21 07:56:37;;;;;;;8.30;3.20;;;;;;;28.03;65.31;100153.84;5021471;28;20326;-58
2023/08/21 07:59:09;;;;;;;10.97;3.20;;;;;;;27.93;65.23;100149.34;5011814;28;20067;-58
2023/08/21 08:01:40;;;;;;;12.73;2.90;;;;;;;27.75;65.85;100146.44;5021502;28;20419;-58
2023/08/21 08:04:12;;;;;;;7.63;3.10;;;;;;;27.69;65.85;100157.75;5011397;28;20158;-58
2023/08/21 08:06:43;;;;;;;10.60;2.77;;;;;;;27.49;65.84;100130.00;5021092;28;20063;-58
2023/08/21 08:09:14;;;;;;;8.07;3.20;;;;;;;27.47;66.53;100142.72;5011647;28;20070;-58
2023/08/21 08:11:48;;;;;;;12.77;3.07;;;;;;;27.40;66.72;100143.41;5021120;28;20551;-58
2023/08/21 08:14:20;;;;;;;5.67;2.70;;;;;;;27.28;67.94;100137.28;5010526;28;20037;-58
2023/08/21 08:16:51;;;;;;;6.63;3.10;;;;;;;27.27;67.65;100135.59;5021947;28;20134;-58
2023/08/21 08:19:21;;;;;;;12.73;2.70;;;;;;;27.10;67.28;100129.84;5003244;28;20048;-58
2023/08/21 08:21:52;;;;;;;10.03;3.67;;;;;;;27.10;67.29;100137.88;5021521;28;20041;-58
2023/08/21 08:24:23;;;;;;;12.33;3.17;;;;;;;27.02;67.52;100143.06;5010458;28;20055;-56
2023/08/21 08:26:53;;;;;;;8.73;3.23;;;;;;;26.94;68.02;100150.94;5023111;28;20053;-58
2023/08/21 08:29:26;;;;;;;10.70;3.83;;;;;;;26.83;68.30;100153.69;5013921;28;20076;-59
2023/08/21 08:31:56;;;;;;;6.90;2.83;;;;;;;26.77;69.60;100164.97;5023335;28;20115;-58
2023/08/21 08:34:27;;;;;;;10.47;3.20;;;;;;;26.76;70.04;100165.91;5033770;28;20053;-59
2023/08/21 08:36:58;;;;;;;7.47;3.60;;;;;;;26.74;70.94;100165.22;4994869;28;20486;-57
2023/08/21 08:39:28;;;;;;;16.07;3.43;;;;;;;26.71;72.15;100165.47;5001901;28;20155;-58
2023/08/21 08:42:04;;;;;;;9.43;3.70;;;;;;;26.55;72.16;100169.47;5008476;28;20045;-57
2023/08/21 08:44:38;;;;;;;11.60;3.80;;;;;;;26.49;72.08;100183.34;5020613;28;20071;-58
2023/08/21 08:47:09;;;;;;;11.10;3.30;;;;;;;26.41;72.18;100191.16;4993042;28;20046;-57
2023/08/21 08:49:40;;;;;;;11.67;4.20;;;;;;;26.38;72.12;100208.34;5001584;28;20487;-57
2023/08/21 08:52:11;;;;;;;12.00;4.00;;;;;;;26.23;72.23;100210.50;4990944;28;20476;-58
2023/08/21 08:54:42;;;;;;;8.77;3.43;;;;;;;26.10;72.02;100217.81;5016110;28;20053;-57
2023/08/21 08:57:13;;;;;;;6.03;3.50;;;;;;;25.96;72.41;100223.44;5011265;28;20044;-58
2023/08/21 08:59:45;;;;;;;8.83;3.53;;;;;;;25.83;72.27;100227.13;5020631;28;20049;-58
2023/08/21 09:02:17;;;;;;;17.33;3.77;;;;;;;25.74;72.94;100241.22;5010495;28;20148;-58
2023/08/21 09:04:51;;;;;;;16.33;4.17;;;;;;;25.47;73.08;100222.03;5021411;28;20044;-58
2023/08/21 09:07:23;;;;;;;12.03;3.60;;;;;;;25.44;73.96;100249.03;5003358;28;20041;-58
2023/08/21 09:09:55;;;;;;;10.30;3.60;;;;;;;25.20;74.59;100247.28;5015090;28;20414;-57
2023/08/21 09:12:27;;;;;;;10.10;3.87;;;;;;;25.05;75.43;100259.16;5021020;28;20080;-58
2023/08/21 09:15:01;;;;;;;8.40;3.33;;;;;;;24.87;76.05;100256.91;5010900;28;20053;-58
2023/08/21 09:17:34;;;;;;;12.37;3.77;;;;;;;24.70;76.39;100254.66;5020613;28;20053;-57
2023/08/21 09:20:08;;;;;;;10.37;3.53;;;;;;;24.53;77.25;100258.59;5010642;28;20083;-58
2023/08/21 09:22:39;;;;;;;8.70;4.07;;;;;;;24.25;78.14;100243.75;5022037;28;20049;-58
2023/08/21 09:25:11;;;;;;;8.50;4.07;;;;;;;24.19;79.13;100249.53;5010348;28;20057;-58
2023/08/21 09:27:43;;;;;;;9.93;3.90;;;;;;;24.08;79.91;100269.84;5021768;28;20279;-57
2023/08/21 09:30:17;;;;;;;7.30;4.30;;;;;;;23.92;80.54;100263.94;5010260;28;21779;-59
2023/08/21 09:32:57;;;;;;;7.60;4.20;;;;;;;23.79;80.95;100263.09;5020891;28;20183;-58
2023/08/21 09:35:29;;;;;;;7.73;3.47;;;;;;;23.76;81.81;100279.31;5010095;28;20043;-59
2023/08/21 09:38:02;;;;;;;7.80;4.20;;;;;;;23.61;82.92;100260.78;5010274;28;20064;-59
2023/08/21 09:40:33;;;;;;;9.40;3.80;;;;;;;23.49;84.02;100266.97;5021121;28;20359;-61
2023/08/21 09:43:06;;;;;;;9.47;3.73;;;;;;;23.39;84.86;100257.91;5011218;28;20059;-58
2023/08/21 09:45:40;;;;;;;7.70;3.83;;;;;;;23.25;85.55;100261.53;5023666;28;20132;-58
2023/08/21 09:48:12;;;;;;;10.40;3.93;;;;;;;23.13;86.40;100263.22;5014339;28;20088;-59
2023/08/21 09:50:45;;;;;;;10.07;4.27;;;;;;;23.04;87.33;100262.06;5023869;28;20491;-59
2023/08/21 09:53:17;;;;;;;7.73;3.83;;;;;;;22.96;87.91;100263.47;5014472;28;20067;-58
2023/08/21 09:55:49;;;;;;;12.30;4.23;;;;;;;22.89;88.75;100262.19;5024565;28;20127;-58
2023/08/21 09:58:22;;;;;;;10.07;4.40;;;;;;;22.86;89.24;100273.91;5006427;28;20595;-59
2023/08/21 10:00:59;;;;;;;15.93;4.40;;;;;;;22.71;89.91;100265.13;5023953;28;20048;-59
2023/08/21 10:03:31;;;;;;;7.70;3.77;;;;;;;22.70;90.94;100274.09;5013630;28;20449;-59
2023/08/21 10:06:06;;;;;;;9.30;4.20;;;;;;;22.58;91.97;100269.59;5004689;28;20595;-59
2023/08/21 10:08:40;;;;;;;7.83;4.13;;;;;;;22.45;92.63;100279.34;5009983;28;20049;-59
2023/08/21 10:11:12;;;;;;;11.87;4.50;;;;;;;22.25;93.29;100267.34;5014079;28;20052;-58
2023/08/21 10:13:44;;;;;;;14.53;5.07;;;;;;;22.22;93.72;100288.84;5023873;28;20475;-60
2023/08/21 10:16:19;;;;;;;15.03;4.23;;;;;;;22.15;94.17;100294.50;5013739;28;20691;-59
2023/08/21 10:18:51;;;;;;;13.97;4.70;;;;;;;22.09;94.68;100283.38;5023881;28;20055;-59
2023/08/21 10:21:25;;;;;;;12.63;4.20;;;;;;;22.07;95.44;100286.16;4993602;28;20384;-59
2023/08/21 10:24:01;;;;;;;19.47;5.60;;;;;;;21.94;95.94;100280.78;4993343;28;20641;-57
2023/08/21 10:26:33;;;;;;;14.23;5.43;;;;;;;21.74;96.53;100281.16;5008375;28;20126;-60
2023/08/21 10:29:10;;;;;;;12.67;4.73;;;;;;;21.69;97.11;100285.91;5013778;28;20396;-58
2023/08/21 10:31:44;;;;;;;13.33;5.07;;;;;;;21.57;97.55;100284.88;5023425;28;20526;-60
2023/08/21 10:34:16;;;;;;;10.17;4.77;;;;;;;21.48;97.42;100283.63;5013737;28;20143;-59
2023/08/21 10:37:09;;;;;;;24.20;5.03;;;;;;;21.39;97.72;100278.91;5022867;28;20052;-59
2023/08/21 10:39:42;;;;;;;11.53;4.63;;;;;;;21.24;97.91;100263.81;5023586;28;20132;-59
2023/08/21 10:42:15;;;;;;;14.43;4.87;;;;;;;21.27;97.88;100275.16;5013492;28;20459;-59
2023/08/21 10:44:52;;;;;;;10.57;5.20;;;;;;;21.25;97.79;100276.19;5016434;28;20668;-59
2023/08/21 10:47:33;;;;;;;7.80;4.30;;;;;;;21.06;97.75;100256.03;5013236;28;20904;-58
2023/08/21 10:50:06;;;;;;;13.90;4.37;;;;;;;21.09;97.71;100271.81;5013164;28;20100;-59
2023/08/21 10:52:41;;;;;;;13.67;4.83;;;;;;;21.03;97.69;100293.41;5023940;28;20283;-59
2023/08/21 10:55:13;;;;;;;12.17;4.67;;;;;;;20.93;97.98;100286.94;5012670;28;20045;-59
2023/08/21 10:57:44;;;;;;;11.30;5.60;;;;;;;20.62;98.07;100245.41;5022770;28;20280;-59
2023/08/21 11:00:18;;;;;;;16.83;4.67;;;;;;;20.78;98.75;100290.50;5012629;28;20279;-58
2023/08/21 11:02:51;;;;;;;10.40;5.03;;;;;;;20.78;98.88;100303.75;5022775;28;20280;-59
2023/08/21 11:05:23;;;;;;;13.30;5.27;;;;;;;20.73;98.99;100305.84;4992507;28;20318;-60
2023/08/21 11:07:57;;;;;;;17.90;6.13;;;;;;;20.70;99.06;100311.31;5001837;28;20301;-59
2023/08/21 11:10:33;;;;;;;18.57;5.73;;;;;;;20.68;99.20;100320.22;5023215;28;20370;-60
2023/08/21 11:13:08;;;;;;;9.77;4.97;;;;;;;20.59;99.70;100326.06;5013060;28;20779;-60
2023/08/21 11:15:40;;;;;;;14.90;5.20;;;;;;;20.54;100.00;100322.75;5022926;28;20291;-59
2023/08/21 11:18:13;;;;;;;8.70;4.90;;;;;;;20.40;100.00;100314.75;5012476;28;20630;-60
2023/08/21 11:20:45;;;;;;;16.97;5.13;;;;;;;20.44;100.00;100334.84;5022380;28;20284;-60
2023/08/21 11:23:17;;;;;;;16.87;5.40;;;;;;;20.36;100.00;100334.44;5012179;28;20272;-60
2023/08/21 11:25:49;;;;;;;12.90;5.40;;;;;;;20.28;100.00;100339.31;5022759;28;20695;-60
2023/08/21 11:28:20;;;;;;;13.70;5.37;;;;;;;20.17;100.00;100335.47;5012305;28;20297;-59
2023/08/21 11:30:52;;;;;;;10.63;5.10;;;;;;;20.04;100.00;100326.44;5021663;28;20353;-59
2023/08/21 11:33:27;;;;;;;10.20;5.53;;;;;;;19.51;100.00;100250.66;5013130;28;21204;-57
2023/08/21 11:35:59;;;;;;;23.07;5.53;;;;;;;19.89;100.00;100319.34;5012182;28;20908;-59
2023/08/21 11:38:31;;;;;;;8.40;4.50;;;;;;;19.89;100.00;100325.47;5021377;28;20274;-59
2023/08/21 11:41:07;;;;;;;17.23;5.17;;;;;;;20.00;100.00;100315.16;5011871;28;20405;-59
2023/08/21 11:43:39;;;;;;;8.70;5.80;;;;;;;19.85;100.00;100275.38;5022050;28;20288;-59